Time;durP1;ratioP1;P1;durP2;ratioP2;P2;SDS_P1;SDS_P2;PMS_P1;PMS_P2;Temp;Humidity;BMP_temperature;BMP_pressure;BME280_temperature;BME280_humidity;BME280_pressure;Samples;Min_cycle;Max_cycle;Signal;HPM_P1;HPM_P2
2022/12/23 00:02:40;;;;;;;;;;;;;;;3.44;100.00;100129.97;5569615;32;33719;-73
2022/12/23 00:05:48;;;;;;;;;;;;;;;3.41;100.00;100119.75;5569735;32;33598;-73
2022/12/23 00:08:59;;;;;;;;;;;;;;;3.49;100.00;100127.81;5569766;32;34163;-73
2022/12/23 00:15:31;;;;;;;;;;;;;;;3.53;100.00;100132.81;5569651;32;33608;-72
2022/12/23 00:18:39;;;;;;;;;;;;;;;3.50;100.00;100129.47;5569436;32;33660;-73
2022/12/23 00:21:45;;;;;;;;;;;;;;;3.53;100.00;100128.41;5569809;32;33511;-73
2022/12/23 00:24:53;;;;;;;;;;;;;;;3.58;100.00;100134.09;5569511;32;33538;-73
2022/12/23 00:28:01;;;;;;;;;;;;;;;3.49;100.00;100129.59;5569621;32;33837;-71
2022/12/23 00:31:11;;;;;;;;;;;;;;;3.47;100.00;100128.91;5568822;32;33847;-73
2022/12/23 00:34:19;;;;;;;;;;;;;;;3.52;100.00;100129.34;5569236;32;33685;-72
2022/12/23 00:37:29;;;;;;;;;;;;;;;3.52;100.00;100129.34;5555959;32;34234;-72
2022/12/23 00:44:05;;;;;;;;;;;;;;;3.50;100.00;100121.59;5568932;32;34304;-72
2022/12/23 00:49:40;;;;;;;;;;;;;;;3.56;100.00;100115.03;5568779;32;33874;-72
2022/12/23 00:50:41;;;;;;;;;;;;;;;3.57;100.00;100110.59;5568884;32;34326;-72
2022/12/23 00:53:48;;;;;;;;;;;;;;;3.57;100.00;100107.97;5568948;32;33562;-72
2022/12/23 00:56:54;;;;;;;;;;;;;;;3.60;100.00;100105.09;5570696;32;34200;-73
2022/12/23 01:00:00;;;;;;;;;;;;;;;3.64;100.00;100106.47;5571503;32;34227;-72
2022/12/23 01:06:38;;;;;;;;;;;;;;;3.57;100.00;100106.19;5571359;32;34006;-73
2022/12/23 01:09:45;;;;;;;;;;;;;;;3.59;100.00;100111.28;5571423;32;33608;-73
2022/12/23 01:12:56;;;;;;;;;;;;;;;3.57;100.00;100111.44;5557640;32;35147;-72
2022/12/23 01:16:05;;;;;;;;;;;;;;;3.55;100.00;100100.22;5571440;32;34179;-72
2022/12/23 01:19:20;;;;;;;;;;;;;;;3.54;100.00;100103.81;5571335;32;33712;-72
2022/12/23 01:22:27;;;;;;;;;;;;;;;3.64;100.00;100102.06;5557024;32;33742;-72
2022/12/23 01:25:33;;;;;;;;;;;;;;;3.70;100.00;100096.31;5571072;32;33905;-72
2022/12/23 01:28:40;;;;;;;;;;;;;;;3.78;100.00;100085.97;5571334;32;34123;-72
2022/12/23 01:31:49;;;;;;;;;;;;;;;3.81;100.00;100091.00;5571265;32;34090;-72
2022/12/23 01:34:56;;;;;;;;;;;;;;;3.84;100.00;100088.09;5571118;32;34134;-72
2022/12/23 01:38:01;;;;;;;;;;;;;;;3.86;100.00;100090.59;5571143;32;34123;-72
2022/12/23 01:42:42;;;;;;;;;;;;;;;3.82;100.00;100086.56;5571063;32;33582;-73
2022/12/23 01:45:01;;;;;;;;;;;;;;;3.91;100.00;100080.53;5571092;32;34368;-73
2022/12/23 01:48:10;;;;;;;;;;;;;;;4.01;100.00;100064.81;5551619;32;34102;-72
2022/12/23 01:51:21;;;;;;;;;;;;;;;4.05;100.00;100071.44;5551539;32;34341;-73
2022/12/23 01:54:30;;;;;;;;;;;;;;;4.02;100.00;100064.66;5551522;32;33673;-73
2022/12/23 01:57:39;;;;;;;;;;;;;;;4.02;100.00;100067.28;5538037;32;34274;-72
2022/12/23 02:04:15;;;;;;;;;;;;;;;4.13;100.00;100064.56;5551503;32;34286;-72
2022/12/23 02:10:51;;;;;;;;;;;;;;;4.02;100.00;100055.97;5551467;32;33976;-72
2022/12/23 02:17:28;;;;;;;;;;;;;;;4.01;100.00;100055.16;5551272;32;34159;-72
2022/12/23 02:20:40;;;;;;;;;;;;;;;3.94;100.00;100046.12;5551170;32;33791;-72
2022/12/23 02:24:18;;;;;;;;;;;;;;;3.89;100.00;100049.16;5551183;32;34264;-72
2022/12/23 02:27:31;;;;;;;;;;;;;;;3.83;100.00;100048.84;5551173;32;34363;-72
2022/12/23 02:31:08;;;;;;;;;;;;;;;3.73;100.00;100048.81;5551098;32;33783;-72
2022/12/23 02:34:19;;;;;;;;;;;;;;;3.58;100.00;100054.56;5551132;32;33941;-72
2022/12/23 02:37:30;;;;;;;;;;;;;;;3.53;100.00;100051.50;5551068;32;33691;-72
2022/12/23 02:40:36;;;;;;;;;;;;;;;3.49;100.00;100053.53;5551156;32;34089;-70
2022/12/23 02:43:44;;;;;;;;;;;;;;;3.52;100.00;100044.59;5551040;32;33680;-71
2022/12/23 02:46:55;;;;;;;;;;;;;;;3.50;100.00;100044.72;5565093;32;33756;-71
2022/12/23 02:50:08;;;;;;;;;;;;;;;3.61;100.00;100046.44;5557212;32;34335;-71
2022/12/23 02:53:18;;;;;;;;;;;;;;;3.56;100.00;100044.22;5556518;32;32379;-71
2022/12/23 02:56:25;;;;;;;;;;;;;;;3.60;100.00;100042.97;5570394;32;33713;-71
2022/12/23 02:59:36;;;;;;;;;;;;;;;3.52;100.00;100048.06;5569619;32;32153;-71
2022/12/23 03:02:44;;;;;;;;;;;;;;;3.57;100.00;100043.25;5570173;32;34347;-71
2022/12/23 03:05:51;;;;;;;;;;;;;;;3.47;100.00;100050.25;5570415;32;33142;-70
2022/12/23 03:09:01;;;;;;;;;;;;;;;3.49;100.00;100058.78;5570392;32;34371;-71
2022/12/23 03:12:16;;;;;;;;;;;;;;;3.43;100.00;100054.91;5570296;32;34333;-71
2022/12/23 03:15:32;;;;;;;;;;;;;;;3.46;100.00;100052.03;5570313;32;33778;-71
2022/12/23 03:18:50;;;;;;;;;;;;;;;3.48;100.00;100054.53;5555864;32;33715;-71
2022/12/23 03:22:16;;;;;;;;;;;;;;;3.46;100.00;100049.41;5570042;32;34126;-71
2022/12/23 03:25:28;;;;;;;;;;;;;;;3.49;100.00;100045.66;5570134;32;34069;-71
2022/12/23 03:28:48;;;;;;;;;;;;;;;3.46;100.00;100044.16;5570449;32;33704;-70
2022/12/23 03:31:55;;;;;;;;;;;;;;;3.52;100.00;100041.97;5570056;32;33694;-71
2022/12/23 03:35:05;;;;;;;;;;;;;;;3.43;100.00;100041.81;5570021;32;34277;-70
2022/12/23 03:38:13;;;;;;;;;;;;;;;3.43;100.00;100040.97;5569965;32;33817;-71
2022/12/23 03:41:26;;;;;;;;;;;;;;;3.43;100.00;100040.97;5570024;32;34354;-71
2022/12/23 03:44:36;;;;;;;;;;;;;;;3.40;100.00;100042.06;5569931;32;33811;-71
2022/12/23 03:47:52;;;;;;;;;;;;;;;3.34;100.00;100036.50;5569829;32;33577;-71
2022/12/23 03:51:01;;;;;;;;;;;;;;;3.35;100.00;100032.91;5569941;32;33722;-71
2022/12/23 03:54:18;;;;;;;;;;;;;;;3.38;100.00;100032.66;5570088;32;33718;-71
2022/12/23 03:57:28;;;;;;;;;;;;;;;3.29;100.00;100031.62;5569805;32;34346;-71
2022/12/23 04:00:38;;;;;;;;;;;;;;;3.32;100.00;100026.16;5569826;32;34447;-71
2022/12/23 04:03:55;;;;;;;;;;;;;;;3.27;100.00;100027.50;5569635;32;33699;-71
2022/12/23 04:07:06;;;;;;;;;;;;;;;3.29;100.00;100031.62;5556364;32;33652;-71
2022/12/23 04:10:13;;;;;;;;;;;;;;;3.27;100.00;100022.25;5569607;32;33496;-71
2022/12/23 04:13:18;;;;;;;;;;;;;;;3.26;100.00;100024.03;5569625;32;33928;-71
2022/12/23 04:16:26;;;;;;;;;;;;;;;3.33;100.00;100030.44;5569447;32;33997;-71
2022/12/23 04:19:35;;;;;;;;;;;;;;;3.25;100.00;100019.75;5569487;32;33745;-71
2022/12/23 04:22:42;;;;;;;;;;;;;;;3.32;100.00;100018.28;5569315;32;33605;-71
2022/12/23 04:25:50;;;;;;;;;;;;;;;3.23;100.00;100010.37;5569327;32;33979;-71
2022/12/23 04:28:57;;;;;;;;;;;;;;;3.28;100.00;100014.25;5569048;32;34427;-71
2022/12/23 04:32:04;;;;;;;;;;;;;;;3.16;100.00;100007.44;5571788;32;33692;-72
2022/12/23 04:35:11;;;;;;;;;;;;;;;3.22;100.00;100004.28;5571686;32;34165;-71
2022/12/23 04:38:19;;;;;;;;;;;;;;;3.19;100.00;100015.06;5571614;32;34307;-71
2022/12/23 04:41:23;;;;;;;;;;;;;;;3.19;100.00;100012.44;5571874;32;34310;-71
2022/12/23 04:44:31;;;;;;;;;;;;;;;3.23;100.00;100016.44;5571659;32;34322;-71
2022/12/23 04:47:39;;;;;;;;;;;;;;;3.21;100.00;100009.66;5571320;32;33662;-71
2022/12/23 04:50:47;;;;;;;;;;;;;;;3.21;100.00;100020.13;5571618;32;33667;-71
2022/12/23 04:53:54;;;;;;;;;;;;;;;3.09;100.00;100027.25;5571460;32;34285;-71
2022/12/23 04:57:01;;;;;;;;;;;;;;;3.06;100.00;100025.72;5571453;32;33901;-71
2022/12/23 05:00:07;;;;;;;;;;;;;;;2.97;100.00;100021.25;5571423;32;34376;-70
2022/12/23 05:03:13;;;;;;;;;;;;;;;2.94;100.00;100028.53;5545035;32;33859;-71
2022/12/23 05:06:20;;;;;;;;;;;;;;;2.94;100.00;100016.28;5571474;32;33706;-71
2022/12/23 05:09:27;;;;;;;;;;;;;;;2.91;100.00;100013.06;5571334;32;33708;-71
2022/12/23 05:12:34;;;;;;;;;;;;;;;2.90;100.00;100019.28;5557416;32;34022;-71
2022/12/23 05:15:43;;;;;;;;;;;;;;;2.91;100.00;100020.91;5571191;32;33980;-70
2022/12/23 05:18:52;;;;;;;;;;;;;;;2.90;100.00;100027.97;5558144;32;33596;-71
2022/12/23 05:21:58;;;;;;;;;;;;;;;2.97;100.00;100028.28;5571082;32;34343;-71
2022/12/23 05:25:06;;;;;;;;;;;;;;;2.93;100.00;100037.34;5570903;32;33778;-71
2022/12/23 05:28:12;;;;;;;;;;;;;;;2.99;100.00;100031.59;5571036;32;34122;-72
2022/12/23 05:31:22;;;;;;;;;;;;;;;2.94;100.00;100028.53;5571047;32;34113;-72
2022/12/23 05:34:27;;;;;;;;;;;;;;;2.89;100.00;100031.53;5570744;32;33652;-71
2022/12/23 05:37:36;;;;;;;;;;;;;;;2.96;100.00;100021.38;5556903;32;33885;-72
2022/12/23 05:40:41;;;;;;;;;;;;;;;2.80;100.00;100016.59;5570674;32;34074;-72
2022/12/23 05:43:50;;;;;;;;;;;;;;;2.71;100.00;100019.16;5570992;32;33680;-72
2022/12/23 05:46:56;;;;;;;;;;;;;;;2.68;100.00;100030.69;5570834;32;33765;-71
2022/12/23 05:50:05;;;;;;;;;;;;;;;2.70;100.00;100030.56;5571078;32;34081;-72
2022/12/23 05:53:13;;;;;;;;;;;;;;;2.83;100.00;100024.19;5570859;32;33710;-71
2022/12/23 05:56:23;;;;;;;;;;;;;;;2.80;100.00;100029.69;5570767;32;34306;-71
2022/12/23 05:59:31;;;;;;;;;;;;;;;2.79;100.00;100043.75;5570705;32;34061;-69
2022/12/23 06:02:37;;;;;;;;;;;;;;;2.82;100.00;100048.72;5570954;32;33697;-69
2022/12/23 06:05:50;;;;;;;;;;;;;;;2.89;100.00;100051.66;5570730;32;33647;-69
2022/12/23 06:08:56;;;;;;;;;;;;;;;2.81;100.00;100044.44;5570426;32;33848;-68
2022/12/23 06:12:05;;;;;;;;;;;;;;;2.93;100.00;100048.66;5570646;32;34364;-70
2022/12/23 06:15:12;;;;;;;;;;;;;;;2.84;100.00;100038.97;5570603;32;34072;-69
2022/12/23 06:18:18;;;;;;;;;;;;;;;2.81;100.00;100038.38;5570551;32;33631;-69
2022/12/23 06:21:26;;;;;;;;;;;;;;;2.72;100.00;100044.34;5570279;32;34399;-69
2022/12/23 06:24:33;;;;;;;;;;;;;;;2.74;100.00;100038.06;5570505;32;34357;-68
2022/12/23 06:27:41;;;;;;;;;;;;;;;2.55;100.00;100048.38;5570593;32;34288;-69
2022/12/23 06:30:53;;;;;;;;;;;;;;;2.57;100.00;100041.19;5570605;32;33567;-69
2022/12/23 06:34:03;;;;;;;;;;;;;;;2.54;100.00;100044.09;5570894;32;34029;-69
2022/12/23 06:37:09;;;;;;;;;;;;;;;2.54;100.00;100041.47;5570234;32;33740;-69
2022/12/23 06:40:14;;;;;;;;;;;;;;;2.54;100.00;100041.47;5556815;32;34002;-68
2022/12/23 06:43:23;;;;;;;;;;;;;;;2.39;100.00;100030.44;5570125;32;33999;-68
2022/12/23 06:46:30;;;;;;;;;;;;;;;2.33;100.00;100048.44;5570085;32;34093;-69
2022/12/23 06:49:37;;;;;;;;;;;;;;;2.27;100.00;100052.41;5570765;32;33754;-69
2022/12/23 06:52:43;;;;;;;;;;;;;;;2.23;100.00;100058.81;5570271;32;34135;-71
2022/12/23 06:55:58;;;;;;;;;;;;;;;2.25;100.00;100056.06;5569420;32;34343;-70
2022/12/23 06:59:05;;;;;;;;;;;;;;;2.21;100.00;100057.28;5570337;32;33739;-69
2022/12/23 07:02:13;;;;;;;;;;;;;;;2.19;100.00;100053.00;5556079;32;34574;-69
2022/12/23 07:05:20;;;;;;;;;;;;;;;2.27;100.00;100060.25;5570094;32;33744;-69
2022/12/23 07:08:27;;;;;;;;;;;;;;;2.35;100.00;100068.31;5570141;32;33730;-68
2022/12/23 07:11:33;;;;;;;;;;;;;;;2.23;100.00;100066.66;5570248;32;33677;-67
2022/12/23 07:14:40;;;;;;;;;;;;;;;2.30;100.00;100082.72;5556230;32;32690;-70
2022/12/23 07:17:45;;;;;;;;;;;;;;;2.33;100.00;100088.53;5555993;32;34978;-67
2022/12/23 07:20:51;;;;;;;;;;;;;;;2.40;100.00;100089.72;5570075;32;33599;-68
2022/12/23 07:23:57;;;;;;;;;;;;;;;2.42;100.00;100092.22;5569687;32;33916;-68
2022/12/23 07:27:01;;;;;;;;;;;;;;;2.38;100.00;100094.22;5569970;32;34364;-68
2022/12/23 07:30:05;;;;;;;;;;;;;;;2.26;100.00;100091.75;5569993;32;33569;-68
2022/12/23 07:33:09;;;;;;;;;;;;;;;2.30;100.00;100091.41;5569920;32;33686;-68
2022/12/23 07:36:12;;;;;;;;;;;;;;;2.38;100.00;100081.13;5556378;32;33286;-69
2022/12/23 07:39:18;;;;;;;;;;;;;;;2.36;100.00;100072.59;5569899;32;34228;-68
2022/12/23 07:42:24;;;;;;;;;;;;;;;2.52;100.00;100066.94;5556244;32;34242;-69
2022/12/23 07:45:49;;;;;;;;;;;;;;;2.71;100.00;100063.66;5569507;32;34146;-68
2022/12/23 07:49:02;;;;;;;;;;;;;;;2.51;100.00;100062.66;5569793;32;33682;-68
2022/12/23 07:52:08;;;;;;;;;;;;;;;2.34;100.00;100073.66;5569775;32;34424;-69
2022/12/23 07:55:13;;;;;;;;;;;;;;;2.49;100.00;100067.19;5569638;32;33798;-69
2022/12/23 07:58:16;;;;;;;;;;;;;;;2.46;100.00;100073.53;5569693;32;33593;-69
2022/12/23 08:01:22;;;;;;;;;;;;;;;2.49;100.00;100067.19;5569483;31;33828;-69
2022/12/23 08:04:29;;;;;;;;;;;;;;;2.39;100.00;100061.03;5555297;32;32401;-69
2022/12/23 08:07:34;;;;;;;;;;;;;;;2.50;100.00;100066.25;5569274;32;33765;-69
2022/12/23 08:10:39;;;;;;;;;;;;;;;2.63;100.00;100062.50;5569426;32;34288;-68
2022/12/23 08:13:51;;;;;;;;;;;;;;;2.50;100.00;100059.22;5569564;32;33404;-68
2022/12/23 08:16:58;;;;;;;;;;;;;;;2.43;100.00;100049.34;5569453;32;34319;-69
2022/12/23 08:20:02;;;;;;;;;;;;;;;2.44;100.00;100054.47;5555194;32;32281;-69
2022/12/23 08:23:07;;;;;;;;;;;;;;;2.62;100.00;100050.34;5569139;32;33776;-69
2022/12/23 08:26:18;;;;;;;;;;;;;;;2.81;100.00;100044.44;5569303;32;33726;-69
2022/12/23 08:29:24;;;;;;;;;;;;;;;2.91;100.00;100053.19;5555563;32;33626;-70
2022/12/23 08:32:35;;;;;;;;;;;;;;;2.91;100.00;100055.81;5544387;32;34228;-69
2022/12/23 08:35:41;;;;;;;;;;;;;;;2.75;100.00;100050.19;5555279;32;32144;-69
2022/12/23 08:38:47;;;;;;;;;;;;;;;2.86;100.00;100050.13;5554317;32;34171;-69
2022/12/23 08:41:53;;;;;;;;;;;;;;;2.70;100.00;100047.13;5569051;32;34276;-68
2022/12/23 08:44:59;;;;;;;;;;;;;;;2.79;100.00;100054.22;5568536;32;34455;-69
2022/12/23 08:48:05;;;;;;;;;;;;;;;2.68;100.00;100051.63;5568693;32;34335;-69
2022/12/23 08:51:11;;;;;;;;;;;;;;;2.63;100.00;100040.72;5568611;32;34366;-69
2022/12/23 08:54:19;;;;;;;;;;;;;;;2.72;100.00;100039.94;5554963;32;32365;-69
2022/12/23 08:57:24;;;;;;;;;;;;;;;2.65;100.00;100022.25;5555059;32;32168;-69
2022/12/23 09:00:32;;;;;;;;;;;;;;;2.62;100.00;100008.44;5568986;32;34319;-69
2022/12/23 09:03:38;;;;;;;;;;;;;;;2.76;100.00;99996.03;5568119;32;33726;-69
2022/12/23 09:06:44;;;;;;;;;;;;;;;3.00;100.00;99996.59;5568539;32;33561;-69
2022/12/23 09:09:50;;;;;;;;;;;;;;;3.00;100.00;100014.94;5568555;32;34286;-69
2022/12/23 09:12:56;;;;;;;;;;;;;;;2.69;100.00;100019.25;5568461;32;33600;-69
2022/12/23 09:16:01;;;;;;;;;;;;;;;2.86;100.00;100029.16;5568680;32;33597;-69
2022/12/23 09:19:05;;;;;;;;;;;;;;;3.03;100.00;100038.25;5570908;32;34311;-69
2022/12/23 09:22:09;;;;;;;;;;;;;;;3.02;100.00;100029.56;5571217;32;33664;-69
2022/12/23 09:25:13;;;;;;;;;;;;;;;3.01;100.00;100035.75;5570753;32;33676;-69
2022/12/23 09:28:20;;;;;;;;;;;;;;;3.00;100.00;100036.69;5570962;32;34361;-69
2022/12/23 09:31:24;;;;;;;;;;;;;;;3.07;100.00;100034.41;5557416;32;33494;-69
2022/12/23 09:34:35;;;;;;;;;;;;;;;2.96;100.00;100037.91;5570922;32;33672;-69
2022/12/23 09:37:39;;;;;;;;;;;;;;;2.82;100.00;100029.53;5570966;32;33695;-69
2022/12/23 09:40:44;;;;;;;;;;;;;;;2.78;100.00;100022.91;5570857;32;34308;-70
2022/12/23 09:43:53;;;;;;;;;;;;;;;2.98;100.00;100017.69;5570346;32;33633;-70
2022/12/23 09:47:01;;;;;;;;;;;;;;;2.90;100.00;100004.41;5570558;32;33635;-69
2022/12/23 09:50:12;;;;;;;;;;;;;;;2.77;100.00;99998.50;5570661;32;33725;-69
2022/12/23 09:53:20;;;;;;;;;;;;;;;2.79;100.00;99999.22;5569313;32;33989;-70
2022/12/23 09:56:30;;;;;;;;;;;;;;;3.14;100.00;100011.16;5570103;32;34484;-69
2022/12/23 09:59:43;;;;;;;;;;;;;;;3.00;100.00;100018.34;5570733;32;34447;-70
2022/12/23 10:03:06;;;;;;;;;;;;;;;3.18;100.00;100018.62;5543951;32;34466;-68
2022/12/23 10:06:18;;;;;;;;;;;;;;;3.01;100.00;100004.31;5570632;32;34344;-68
2022/12/23 10:09:22;;;;;;;;;;;;;;;2.76;100.00;99996.03;5570603;32;34310;-69
2022/12/23 10:12:33;;;;;;;;;;;;;;;2.73;100.00;99980.53;5570586;32;34378;-69
2022/12/23 10:15:47;;;;;;;;;;;;;;;2.45;100.00;99971.53;5570608;32;34165;-69
2022/12/23 10:18:53;;;;;;;;;;;;;;;2.52;100.00;99970.06;5556782;32;32477;-70
2022/12/23 10:22:05;;;;;;;;;;;;;;;2.64;100.00;99966.44;5570482;32;33703;-68
2022/12/23 10:25:13;;;;;;;;;;;;;;;2.76;100.00;99965.41;5570410;32;34203;-69
2022/12/23 10:28:17;;;;;;;;;;;;;;;2.68;100.00;99959.97;5556256;32;33120;-69
2022/12/23 10:31:29;;;;;;;;;;;;;;;3.05;100.00;99970.81;5570352;32;33690;-69
2022/12/23 10:34:51;;;;;;;;;;;;;;;2.85;100.00;99962.03;5570476;32;33679;-69
2022/12/23 10:37:56;;;;;;;;;;;;;;;2.76;100.00;99951.50;5570734;32;33645;-69
2022/12/23 10:41:11;;;;;;;;;;;;;;;2.75;100.00;99940.19;5570152;32;34401;-70
2022/12/23 10:44:34;;;;;;;;;;;;;;;2.98;100.00;99941.69;5570293;32;33867;-69
2022/12/23 10:47:42;;;;;;;;;;;;;;;3.07;100.00;99942.69;5570047;32;33743;-70
2022/12/23 10:50:53;;;;;;;;;;;;;;;3.04;100.00;99950.81;5570362;32;33578;-70
2022/12/23 10:54:06;;;;;;;;;;;;;;;3.06;100.00;99943.66;5570208;32;34309;-70
2022/12/23 10:57:14;;;;;;;;;;;;;;;3.27;100.00;99935.75;5570062;32;33721;-70
2022/12/23 11:00:22;;;;;;;;;;;;;;;3.21;100.00;99938.88;5556004;32;34472;-70
2022/12/23 11:03:29;;;;;;;;;;;;;;;2.93;100.00;99938.63;5556410;32;33808;-70
2022/12/23 11:06:36;;;;;;;;;;;;;;;2.94;100.00;99944.69;5569869;32;34135;-70
2022/12/23 11:09:44;;;;;;;;;;;;;;;2.92;100.00;99944.00;5569708;32;34382;-69
2022/12/23 11:12:51;;;;;;;;;;;;;;;3.09;100.00;99946.03;5555964;32;33841;-69
2022/12/23 11:16:10;;;;;;;;;;;;;;;2.95;100.00;99935.88;5569619;32;33703;-68
2022/12/23 11:19:14;;;;;;;;;;;;;;;3.00;100.00;99931.09;5569474;32;34020;-71
2022/12/23 11:22:22;;;;;;;;;;;;;;;3.10;100.00;99939.78;5569670;32;34360;-70
2022/12/23 11:25:31;;;;;;;;;;;;;;;3.14;100.00;99930.75;5569674;32;34333;-70
2022/12/23 11:28:45;;;;;;;;;;;;;;;2.95;100.00;99918.34;5569995;32;34196;-69
2022/12/23 11:31:50;;;;;;;;;;;;;;;2.89;100.00;99918.06;5569856;32;33648;-69
2022/12/23 11:34:55;;;;;;;;;;;;;;;3.05;100.00;99923.63;5555853;32;33455;-69
2022/12/23 11:38:01;;;;;;;;;;;;;;;3.08;100.00;99925.19;5569893;32;33746;-70
2022/12/23 11:41:08;;;;;;;;;;;;;;;3.19;100.00;99928.56;5568981;32;34348;-70
2022/12/23 11:44:20;;;;;;;;;;;;;;;3.12;100.00;99937.88;5569747;32;34348;-71
2022/12/23 11:47:32;;;;;;;;;;;;;;;2.97;100.00;99937.41;5569854;32;34269;-71
2022/12/23 11:50:38;;;;;;;;;;;;;;;3.08;100.00;99941.75;5569784;32;33661;-69
2022/12/23 11:53:45;;;;;;;;;;;;;;;3.17;100.00;99934.88;5555703;32;32355;-70
2022/12/23 11:56:51;;;;;;;;;;;;;;;3.08;100.00;99938.28;5569798;32;34446;-70
2022/12/23 12:00:00;;;;;;;;;;;;;;;3.13;100.00;99939.56;5555832;32;32763;-69
2022/12/23 12:03:15;;;;;;;;;;;;;;;3.21;100.00;99942.34;5569528;32;34132;-69
2022/12/23 12:06:22;;;;;;;;;;;;;;;3.26;100.00;99945.41;5569203;32;33912;-69
2022/12/23 12:09:28;;;;;;;;;;;;;;;3.50;100.00;99942.44;5569355;32;34370;-69
2022/12/23 12:12:32;;;;;;;;;;;;;;;3.54;100.00;99946.44;5569276;32;33640;-69
2022/12/23 12:15:36;;;;;;;;;;;;;;;3.53;100.00;99942.19;5569410;32;33803;-68
2022/12/23 12:18:49;;;;;;;;;;;;;;;3.60;100.00;99959.03;5569450;32;33763;-69
2022/12/23 12:22:02;;;;;;;;;;;;;;;3.56;100.00;99943.72;5569329;32;34476;-68
2022/12/23 12:25:19;;;;;;;;;;;;;;;3.46;100.00;99943.69;5569566;32;34254;-69
2022/12/23 12:28:27;;;;;;;;;;;;;;;3.58;100.00;99944.41;5569005;32;34139;-69
2022/12/23 12:31:40;;;;;;;;;;;;;;;3.69;100.00;99942.50;5569042;32;33718;-68
2022/12/23 12:34:59;;;;;;;;;;;;;;;3.65;100.00;99956.84;5568931;32;33783;-69
2022/12/23 12:38:12;;;;;;;;;;;;;;;3.72;100.00;99952.75;5568954;32;33982;-70
2022/12/23 12:41:27;;;;;;;;;;;;;;;3.77;100.00;99941.84;5568869;32;34043;-70
2022/12/23 12:44:53;;;;;;;;;;;;;;;3.87;100.00;99940.87;5568884;32;33876;-69
2022/12/23 12:47:58;;;;;;;;;;;;;;;3.84;100.00;99937.69;5555177;32;33842;-69
2022/12/23 12:51:32;;;;;;;;;;;;;;;3.90;100.00;99938.00;5570058;32;34306;-69
2022/12/23 12:54:38;;;;;;;;;;;;;;;3.96;100.00;99941.88;5557318;32;33874;-69
2022/12/23 12:57:44;;;;;;;;;;;;;;;3.94;100.00;99949.03;5571556;32;33543;-69
2022/12/23 13:00:54;;;;;;;;;;;;;;;4.13;100.00;99941.19;5571346;32;33747;-69
2022/12/23 13:04:28;;;;;;;;;;;;;;;4.07;100.00;99941.72;5571247;32;33728;-70
2022/12/23 13:07:38;;;;;;;;;;;;;;;3.98;100.00;99931.22;5557596;32;32173;-68
2022/12/23 13:10:55;;;;;;;;;;;;;;;4.06;100.00;99939.25;5571211;32;33831;-71
2022/12/23 13:14:11;;;;;;;;;;;;;;;4.11;100.00;99945.75;5557506;32;32155;-70
2022/12/23 13:17:20;;;;;;;;;;;;;;;3.93;100.00;99952.63;5571070;32;33586;-69
2022/12/23 13:20:40;;;;;;;;;;;;;;;4.07;100.00;99944.34;5571368;32;34238;-69
2022/12/23 13:23:56;;;;;;;;;;;;;;;4.10;100.00;99956.37;5571045;32;34405;-70
2022/12/23 13:27:13;;;;;;;;;;;;;;;4.01;100.00;99958.03;5571062;32;34215;-69
2022/12/23 13:30:23;;;;;;;;;;;;;;;4.10;100.00;99951.97;5544493;32;32931;-69
2022/12/23 13:33:47;;;;;;;;;;;;;;;4.19;100.00;99945.06;5570977;32;33572;-69
2022/12/23 13:37:12;;;;;;;;;;;;;;;4.19;100.00;99943.25;5557434;32;33081;-70
2022/12/23 13:40:29;;;;;;;;;;;;;;;4.26;100.00;99946.97;5557472;32;33578;-69
2022/12/23 13:43:42;;;;;;;;;;;;;;;4.10;100.00;99949.34;5571037;32;34120;-69
2022/12/23 13:46:56;;;;;;;;;;;;;;;4.01;100.00;99944.09;5512269;32;1415304;-69
2022/12/23 13:50:07;;;;;;;;;;;;;;;3.96;100.00;99955.00;5570852;32;33829;-69
2022/12/23 13:53:14;;;;;;;;;;;;;;;3.87;100.00;99953.19;5556901;32;33637;-69
2022/12/23 13:56:22;;;;;;;;;;;;;;;3.86;100.00;99954.16;5557127;32;33704;-69
2022/12/23 13:59:55;;;;;;;;;;;;;;;3.83;100.00;99957.84;5570668;32;33782;-70
2022/12/23 14:03:21;;;;;;;;;;;;;;;3.89;100.00;99957.31;5570178;32;33984;-70
2022/12/23 14:06:27;;;;;;;;;;;;;;;4.04;100.00;99949.88;5570465;32;34275;-70
2022/12/23 14:09:37;;;;;;;;;;;;;;;4.09;100.00;99939.81;5570548;32;34272;-68
2022/12/23 14:17:29;;;;;;;;;;;;;;;4.19;100.00;99955.56;5542452;32;34239;-69
2022/12/23 14:20:36;;;;;;;;;;;;;;;4.26;100.00;99943.56;5570617;32;34303;-69
2022/12/23 14:23:52;;;;;;;;;;;;;;;4.24;100.00;99959.44;5570355;32;33857;-70
2022/12/23 14:27:23;;;;;;;;;;;;;;;4.11;100.00;99963.31;5556785;32;34478;-69
2022/12/23 14:30:41;;;;;;;;;;;;;;;4.08;100.00;99963.56;5570348;32;33662;-69
2022/12/23 14:33:48;;;;;;;;;;;;;;;3.98;100.00;99965.34;5570575;32;34274;-70
2022/12/23 14:37:13;;;;;;;;;;;;;;;4.06;100.00;99962.87;5570403;32;34145;-70
2022/12/23 14:40:39;;;;;;;;;;;;;;;4.09;100.00;99967.84;5570329;32;34376;-69
2022/12/23 14:43:45;;;;;;;;;;;;;;;4.07;100.00;99978.47;5570389;32;33643;-70
2022/12/23 14:46:53;;;;;;;;;;;;;;;4.09;100.00;99965.22;5570112;32;33571;-70
2022/12/23 14:50:17;;;;;;;;;;;;;;;4.16;100.00;99974.22;5557186;32;34076;-70
2022/12/23 14:53:25;;;;;;;;;;;;;;;4.21;100.00;99967.56;5556446;32;32946;-70
2022/12/23 14:56:47;;;;;;;;;;;;;;;4.20;100.00;99968.56;5556342;32;35514;-71
2022/12/23 15:00:00;;;;;;;;;;;;;;;4.24;100.00;99969.09;5570524;32;33619;-70
2022/12/23 15:03:09;;;;;;;;;;;;;;;4.26;100.00;99964.56;5570765;32;34391;-70
2022/12/23 15:06:18;;;;;;;;;;;;;;;4.18;100.00;99975.72;5570203;32;33616;-70
2022/12/23 15:09:33;;;;;;;;;;;;;;;4.08;100.00;99968.81;5569960;32;33934;-70
2022/12/23 15:12:41;;;;;;;;;;;;;;;4.06;100.00;99982.09;5570328;32;33767;-69
2022/12/23 15:15:53;;;;;;;;;;;;;;;4.17;100.00;99981.94;5568777;32;33674;-70
2022/12/23 15:19:15;;;;;;;;;;;;;;;4.18;100.00;99988.03;5570020;32;33758;-69
2022/12/23 15:22:20;;;;;;;;;;;;;;;4.26;100.00;99998.69;5570020;32;33762;-70
2022/12/23 15:25:39;;;;;;;;;;;;;;;4.27;100.00;100000.31;5569877;32;33723;-69
2022/12/23 15:28:44;;;;;;;;;;;;;;;4.37;100.00;100006.41;5569886;32;34464;-70
2022/12/23 15:31:51;;;;;;;;;;;;;;;4.28;100.00;100000.19;5569883;32;33792;-69
2022/12/23 15:35:04;;;;;;;;;;;;;;;4.19;100.00;99987.06;5569885;32;33774;-70
2022/12/23 15:38:15;;;;;;;;;;;;;;;4.22;100.00;99971.84;5570068;32;33078;-69
2022/12/23 15:41:23;;;;;;;;;;;;;;;4.25;100.00;99997.03;5555907;32;33238;-69
2022/12/23 15:44:35;;;;;;;;;;;;;;;4.30;100.00;100000.91;5569897;32;33596;-70
2022/12/23 15:47:44;;;;;;;;;;;;;;;4.27;100.00;99987.19;5536269;32;34511;-70
2022/12/23 15:50:54;;;;;;;;;;;;;;;4.21;100.00;99978.06;5536518;32;34705;-70
2022/12/23 15:54:03;;;;;;;;;;;;;;;4.27;100.00;99988.03;5536487;32;32501;-71
2022/12/23 15:57:15;;;;;;;;;;;;;;;4.29;100.00;99991.38;5550175;32;34228;-70
2022/12/23 16:00:27;;;;;;;;;;;;;;;4.25;100.00;99989.97;5549970;32;34406;-70
2022/12/23 16:03:39;;;;;;;;;;;;;;;4.32;100.00;99980.56;5550109;32;34304;-70
2022/12/23 16:06:49;;;;;;;;;;;;;;;4.29;100.00;99977.41;5550043;32;33678;-69
2022/12/23 16:09:59;;;;;;;;;;;;;;;4.40;100.00;99977.28;5549200;32;33621;-70
2022/12/23 16:13:15;;;;;;;;;;;;;;;4.28;100.00;99976.56;5535154;32;33616;-70
2022/12/23 16:16:25;;;;;;;;;;;;;;;4.31;100.00;99975.44;5535699;32;32302;-70
2022/12/23 16:19:39;;;;;;;;;;;;;;;4.25;100.00;99987.34;5549635;32;34349;-70
2022/12/23 16:22:49;;;;;;;;;;;;;;;4.14;100.00;99984.84;5549834;32;33663;-70
2022/12/23 16:25:55;;;;;;;;;;;;;;;4.21;100.00;99991.19;5550369;32;33712;-69
2022/12/23 16:29:04;;;;;;;;;;;;;;;4.14;100.00;99989.25;5552236;32;34047;-71
2022/12/23 16:32:15;;;;;;;;;;;;;;;4.06;100.00;99979.47;5538263;32;32753;-70
2022/12/23 16:35:26;;;;;;;;;;;;;;;4.08;100.00;99972.25;5551781;32;33937;-70
2022/12/23 16:38:33;;;;;;;;;;;;;;;4.10;100.00;99990.50;5538381;32;34261;-69
2022/12/23 16:41:45;;;;;;;;;;;;;;;4.11;100.00;99986.94;5552116;32;33550;-70
2022/12/23 16:44:53;;;;;;;;;;;;;;;4.15;100.00;99983.06;5538565;31;34042;-70
2022/12/23 16:48:00;;;;;;;;;;;;;;;4.22;100.00;99973.66;5571352;32;34324;-70